Time;durP1;ratioP1;P1;durP2;ratioP2;P2;SDS_P1;SDS_P2;PMS_P1;PMS_P2;Temp;Humidity;BMP_temperature;BMP_pressure;BME280_temperature;BME280_humidity;BME280_pressure;Samples;Min_cycle;Max_cycle;Signal;HPM_P1;HPM_P2
2022/12/23 00:03:46;;;;;;;99.90;37.72;;;;;;;5.97;66.05;99453.03;7737896;32;38079;-81
2022/12/23 00:08:03;;;;;;;83.87;37.40;;;;;;;5.58;67.67;99471.91;7736455;32;39758;-81
2022/12/23 00:16:54;;;;;;;331.48;47.62;;;;;;;5.09;68.64;99483.28;7737541;32;38033;-81
2022/12/23 00:21:13;;;;;;;135.55;41.45;;;;;;;5.25;68.45;99487.88;7737663;32;37093;-81
2022/12/23 00:25:45;;;;;;;93.22;40.78;;;;;;;5.54;67.52;99479.69;7736898;32;40271;-81
2022/12/23 00:30:05;;;;;;;97.17;41.20;;;;;;;5.35;68.12;99481.81;7736754;32;40092;-81
2022/12/23 00:34:21;;;;;;;80.72;36.95;;;;;;;5.44;67.73;99479.53;7737279;32;38712;-81
2022/12/23 00:43:26;;;;;;;61.50;30.27;;;;;;;5.76;67.28;99468.13;7702848;32;39945;-81
2022/12/23 00:52:21;;;;;;;46.08;23.83;;;;;;;6.15;66.99;99452.72;7737069;32;38730;-81
2022/12/23 00:56:37;;;;;;;50.92;24.15;;;;;;;6.12;67.90;99453.25;7736425;32;37862;-81
2022/12/23 01:05:38;;;;;;;64.68;28.90;;;;;;;6.36;68.42;99464.66;7736612;32;40850;-81
2022/12/23 01:09:54;;;;;;;145.77;37.05;;;;;;;6.15;68.35;99460.84;7736512;32;37644;-80
2022/12/23 01:14:11;;;;;;;102.50;33.80;;;;;;;6.07;68.27;99444.22;7736422;32;37006;-82
2022/12/23 01:18:27;;;;;;;65.57;32.30;;;;;;;6.25;67.46;99451.25;7736259;32;39191;-81
2022/12/23 01:22:44;;;;;;;60.78;30.00;;;;;;;6.24;67.33;99434.16;7736214;32;40020;-82
2022/12/23 01:27:00;;;;;;;215.45;42.30;;;;;;;6.18;67.46;99435.19;7735402;32;38779;-81
2022/12/23 01:31:16;;;;;;;73.37;35.40;;;;;;;6.05;67.31;99430.13;7736023;32;37737;-81
2022/12/23 01:35:32;;;;;;;69.03;34.50;;;;;;;6.09;66.90;99421.28;7735944;32;39745;-81
2022/12/23 01:39:49;;;;;;;228.37;41.83;;;;;;;6.03;66.98;99407.91;7735637;32;40538;-81
2022/12/23 01:44:42;;;;;;;58.28;30.58;;;;;;;5.89;67.47;99402.84;7728740;32;37956;-81
2022/12/23 01:48:59;;;;;;;38.65;20.10;;;;;;;6.26;66.58;99388.72;7735641;32;36814;-81
2022/12/23 01:53:21;;;;;;;40.67;21.05;;;;;;;6.47;66.89;99376.22;7735139;32;39272;-82
2022/12/23 01:57:39;;;;;;;45.00;21.45;;;;;;;6.83;66.36;99378.44;7721969;32;39866;-81
2022/12/23 02:11:30;;;;;;;54.40;27.03;;;;;;;6.61;67.91;99383.94;7728142;32;40079;-81
2022/12/23 02:20:39;;;;;;;41.40;21.58;;;;;;;6.59;67.57;99381.50;7725953;32;38723;-82
2022/12/23 02:25:07;;;;;;;48.47;24.58;;;;;;;6.79;66.90;99372.72;7738595;32;38174;-82
2022/12/23 02:29:35;;;;;;;71.37;30.85;;;;;;;6.70;67.18;99382.41;7726425;32;40083;-82
2022/12/23 02:34:14;;;;;;;62.97;31.10;;;;;;;6.25;68.06;99381.66;7738958;32;39921;-82
2022/12/23 02:38:52;;;;;;;63.80;29.48;;;;;;;6.56;66.69;99371.97;7727505;32;38783;-81
2022/12/23 02:43:25;;;;;;;53.38;26.92;;;;;;;6.70;65.91;99364.25;7726034;32;37279;-81
2022/12/23 02:47:57;;;;;;;56.80;26.45;;;;;;;6.55;66.43;99370.34;7738966;32;39339;-81
2022/12/23 02:52:16;;;;;;;49.70;25.60;;;;;;;6.53;66.50;99377.09;7715306;32;40821;-81
2022/12/23 02:56:34;;;;;;;121.85;35.20;;;;;;;6.50;66.16;99375.72;7711878;32;38013;-81
2022/12/23 03:00:50;;;;;;;91.37;35.20;;;;;;;6.27;66.54;99376.81;7711895;32;38057;-81
2022/12/23 03:05:24;;;;;;;61.25;31.77;;;;;;;6.33;66.07;99375.81;7698274;32;38946;-81
2022/12/23 03:09:40;;;;;;;;;;;;;;;6.32;66.07;99373.34;7694193;32;40857;-81
2022/12/23 03:14:19;;;;;;;59.72;28.85;;;;;;;6.37;66.22;99368.81;7712237;32;38230;-82
2022/12/23 03:18:54;;;;;;;101.55;35.13;;;;;;;6.26;66.60;99366.22;7711747;32;37270;-81
2022/12/23 03:23:41;;;;;;;216.50;40.47;;;;;;;6.41;65.85;99371.81;7713982;32;38929;-81
2022/12/23 03:28:09;;;;;;;85.93;35.70;;;;;;;6.01;66.69;99373.78;7738365;32;40030;-81
2022/12/23 03:32:27;;;;;;;67.78;34.03;;;;;;;5.94;67.02;99362.31;7738295;32;37844;-81
2022/12/23 03:36:53;;;;;;;76.05;31.62;;;;;;;6.21;66.10;99369.72;7724644;32;37177;-82
2022/12/23 03:41:19;;;;;;;56.30;28.23;;;;;;;6.22;65.83;99370.53;7724790;32;39278;-81
2022/12/23 03:45:41;;;;;;;51.13;25.33;;;;;;;6.05;65.85;99354.34;7725389;32;39844;-81
2022/12/23 03:50:06;;;;;;;80.20;32.30;;;;;;;6.10;66.07;99347.09;7735512;32;38010;-82
2022/12/23 03:54:31;;;;;;;57.22;29.02;;;;;;;5.95;66.69;99334.19;7738279;32;37206;-82
2022/12/23 03:58:58;;;;;;;66.07;29.33;;;;;;;6.05;66.55;99343.53;7725007;32;39954;-82
2022/12/23 04:03:42;;;;;;;70.75;29.80;;;;;;;6.25;65.50;99318.59;7725405;32;40125;-82
2022/12/23 04:08:24;;;;;;;72.18;27.05;;;;;;;6.07;65.82;99319.75;7737802;32;37968;-81
2022/12/23 04:12:40;;;;;;;58.30;25.90;;;;;;;6.37;64.98;99306.53;7737386;32;38238;-82
2022/12/23 04:16:58;;;;;;;53.87;23.85;;;;;;;6.26;65.62;99315.63;7737733;32;38944;-81
2022/12/23 04:21:14;;;;;;;208.98;33.70;;;;;;;6.25;65.80;99316.69;7735755;32;40836;-81
2022/12/23 04:25:30;;;;;;;69.57;30.83;;;;;;;6.19;65.98;99323.13;7737549;32;37742;-81
2022/12/23 04:29:46;;;;;;;62.17;27.95;;;;;;;6.16;66.19;99315.53;7737578;32;37857;-81
2022/12/23 04:34:02;;;;;;;62.75;26.45;;;;;;;5.97;66.89;99315.84;7737372;32;38913;-82
2022/12/23 04:38:19;;;;;;;77.28;26.92;;;;;;;6.28;65.89;99320.75;7737190;32;40872;-81
2022/12/23 04:42:35;;;;;;;75.18;28.55;;;;;;;6.25;66.48;99332.94;7723491;32;37922;-81
2022/12/23 04:46:52;;;;;;;67.18;28.15;;;;;;;6.23;66.16;99329.66;7722138;32;37368;-82
2022/12/23 04:51:08;;;;;;;57.92;26.10;;;;;;;6.15;66.49;99335.53;7736736;32;39379;-81
2022/12/23 04:55:24;;;;;;;128.85;29.10;;;;;;;6.32;66.16;99328.13;7736835;32;39908;-81
2022/12/23 04:59:40;;;;;;;80.50;27.13;;;;;;;6.21;66.85;99323.69;7736703;32;37619;-81
2022/12/23 05:03:57;;;;;;;103.25;29.25;;;;;;;6.15;67.17;99332.81;7736723;32;37741;-81
2022/12/23 05:08:13;;;;;;;307.87;35.90;;;;;;;6.20;67.19;99335.59;7736573;32;40046;-82
2022/12/23 05:12:29;;;;;;;334.75;37.13;;;;;;;5.93;68.51;99357.16;7736417;32;39985;-82
2022/12/23 05:16:46;;;;;;;69.12;30.23;;;;;;;6.18;67.35;99353.97;7722530;32;38703;-81
2022/12/23 05:21:02;;;;;;;63.63;28.20;;;;;;;6.23;67.38;99354.03;7735180;32;37117;-81
2022/12/23 05:25:18;;;;;;;58.83;28.87;;;;;;;6.25;67.13;99354.59;7722491;32;38900;-81
2022/12/23 05:29:35;;;;;;;79.53;27.90;;;;;;;6.42;66.70;99359.13;7735974;32;39804;-80
2022/12/23 05:33:51;;;;;;;206.13;36.25;;;;;;;6.28;67.30;99345.97;7737434;32;38035;-82
2022/12/23 05:38:07;;;;;;;233.15;37.50;;;;;;;6.14;68.28;99363.66;7739527;32;37438;-81
2022/12/23 05:42:23;;;;;;;94.30;30.70;;;;;;;6.33;67.83;99364.12;7738650;32;39176;-82
2022/12/23 05:46:39;;;;;;;119.10;31.27;;;;;;;6.36;67.47;99358.22;7739305;32;39901;-81
2022/12/23 05:50:56;;;;;;;91.05;29.42;;;;;;;6.48;67.22;99364.31;7739459;32;37965;-82
2022/12/23 05:55:12;;;;;;;281.73;33.97;;;;;;;6.57;67.02;99361.94;7739494;32;37910;-81
2022/12/23 05:59:28;;;;;;;121.47;29.63;;;;;;;6.67;66.74;99362.06;7739375;32;39215;-81
2022/12/23 06:03:46;;;;;;;101.47;27.50;;;;;;;6.61;66.83;99357.69;7739265;32;38979;-82
2022/12/23 06:08:03;;;;;;;290.62;32.85;;;;;;;6.49;67.46;99348.91;7739247;32;37654;-82
2022/12/23 06:12:20;;;;;;;260.13;35.08;;;;;;;6.54;66.98;99343.53;7738521;32;38082;-81
2022/12/23 06:16:36;;;;;;;231.02;35.35;;;;;;;6.67;66.77;99353.13;7738826;32;40035;-81
2022/12/23 06:20:52;;;;;;;129.73;29.95;;;;;;;6.20;68.03;99341.81;7738249;32;40908;-82
2022/12/23 06:25:08;;;;;;;338.23;36.25;;;;;;;6.31;67.79;99339.22;7738798;32;37516;-83
2022/12/23 06:29:25;;;;;;;115.20;25.52;;;;;;;6.25;68.00;99343.75;7739023;32;37384;-82
2022/12/23 06:33:41;;;;;;;86.07;24.33;;;;;;;6.37;67.59;99349.84;7725341;32;40047;-71
2022/12/23 06:37:57;;;;;;;247.18;35.40;;;;;;;6.43;70.30;99371.56;7738360;32;40085;-83
2022/12/23 06:42:13;;;;;;;205.35;32.15;;;;;;;6.77;70.54;99375.69;7738252;32;38737;-83
2022/12/23 06:46:30;;;;;;;527.25;41.42;;;;;;;6.50;69.05;99370.31;7738084;32;37351;-83
2022/12/23 06:50:46;;;;;;;243.85;32.72;;;;;;;6.87;67.31;99360.63;7738655;32;39420;-82
2022/12/23 06:55:02;;;;;;;128.80;31.48;;;;;;;6.82;66.76;99366.00;7738630;32;40898;-83
2022/12/23 06:59:19;;;;;;;215.20;35.00;;;;;;;6.69;66.85;99365.34;7738510;32;37962;-83
2022/12/23 07:03:35;;;;;;;414.00;41.20;;;;;;;6.49;67.36;99371.38;7737868;32;38017;-83
2022/12/23 07:07:51;;;;;;;410.08;40.35;;;;;;;6.33;67.60;99370.41;7738548;32;39215;-83
2022/12/23 07:12:08;;;;;;;550.00;47.55;;;;;;;6.14;68.28;99382.59;7738506;32;40051;-84
2022/12/23 07:16:24;;;;;;;533.83;46.65;;;;;;;6.19;68.27;99378.09;7738137;32;37838;-83
2022/12/23 07:20:40;;;;;;;303.40;39.00;;;;;;;6.29;67.83;99377.38;7736998;32;37225;-82
2022/12/23 07:24:56;;;;;;;193.70;34.40;;;;;;;6.36;67.81;99374.47;7735434;32;38944;-84
2022/12/23 07:29:12;;;;;;;194.80;32.97;;;;;;;6.28;68.10;99364.91;7736885;32;39879;-85
2022/12/23 07:33:29;;;;;;;92.10;29.63;;;;;;;6.53;68.01;99355.41;7738005;32;37979;-84
2022/12/23 07:37:49;;;;;;;360.33;37.33;;;;;;;6.55;68.22;99361.41;7737373;32;37889;-83
2022/12/23 07:42:05;;;;;;;308.40;38.22;;;;;;;6.48;68.03;99353.47;7737864;32;39305;-83
2022/12/23 07:46:41;;;;;;;288.70;37.85;;;;;;;6.07;69.70;99368.44;7737544;32;41324;-84
2022/12/23 07:51:02;;;;;;;104.05;30.25;;;;;;;6.13;68.90;99367.44;7737899;32;37918;-84
2022/12/23 07:55:19;;;;;;;178.73;28.65;;;;;;;6.17;68.83;99371.28;7709891;32;36887;-83
2022/12/23 07:59:35;;;;;;;127.62;28.05;;;;;;;6.23;68.56;99367.56;7714361;32;39173;-83
2022/12/23 08:03:51;;;;;;;147.68;30.10;;;;;;;6.43;68.00;99355.31;7723507;32;40676;-84
2022/12/23 08:08:08;;;;;;;60.83;27.17;;;;;;;6.23;68.79;99351.31;7732509;32;38821;-81
2022/12/23 08:12:24;;;;;;;82.60;26.52;;;;;;;6.51;68.31;99331.31;7723252;32;37963;-82
2022/12/23 08:16:41;;;;;;;68.65;27.83;;;;;;;6.74;68.00;99337.47;7718039;32;39330;-82
2022/12/23 08:21:14;;;;;;;59.25;26.27;;;;;;;6.57;68.41;99334.88;7737452;32;41610;-82
2022/12/23 08:25:30;;;;;;;55.92;26.75;;;;;;;6.81;67.89;99302.03;7736776;32;37949;-81
2022/12/23 08:29:46;;;;;;;57.55;27.10;;;;;;;6.84;67.09;99301.53;7724105;32;38289;-82
2022/12/23 08:34:03;;;;;;;64.97;26.80;;;;;;;6.44;68.50;99295.50;7721968;32;176367;-82
2022/12/23 08:38:20;;;;;;;56.72;26.50;;;;;;;6.42;68.42;99297.66;7736390;32;39996;-83
2022/12/23 08:42:36;;;;;;;62.17;26.25;;;;;;;6.47;68.37;99313.94;7736048;32;38026;-83
2022/12/23 08:46:54;;;;;;;75.07;27.75;;;;;;;6.36;68.49;99326.56;7734655;32;36798;-81
2022/12/23 08:51:13;;;;;;;60.40;27.45;;;;;;;6.18;69.94;99297.13;7732213;32;39766;-81
2022/12/23 08:55:29;;;;;;;62.90;27.23;;;;;;;6.47;68.74;99302.28;7709131;32;40931;-80
2022/12/23 08:59:45;;;;;;;60.53;27.95;;;;;;;6.89;67.47;99315.09;7709800;32;38674;-82
2022/12/23 09:04:03;;;;;;;57.17;26.27;;;;;;;6.64;68.19;99302.16;7718875;32;37269;-82
2022/12/23 09:08:20;;;;;;;65.72;26.92;;;;;;;6.72;67.79;99294.38;7737686;32;38245;-81
2022/12/23 09:12:36;;;;;;;67.53;26.73;;;;;;;6.81;67.12;99307.44;7739998;32;40885;-81
2022/12/23 09:16:52;;;;;;;58.35;25.92;;;;;;;6.57;67.85;99310.50;7739803;32;37849;-82
2022/12/23 09:21:14;;;;;;;62.67;26.90;;;;;;;6.65;67.79;99342.53;7739915;32;36794;-81
2022/12/23 09:25:31;;;;;;;51.85;24.90;;;;;;;6.71;67.71;99332.56;7739815;32;39758;-81
2022/12/23 09:29:47;;;;;;;52.47;25.33;;;;;;;7.01;67.56;99340.13;7739420;32;39871;-81
2022/12/23 09:34:04;;;;;;;50.38;23.98;;;;;;;7.08;67.79;99337.22;7737300;32;38053;-82
2022/12/23 09:38:21;;;;;;;67.12;24.60;;;;;;;7.24;68.05;99305.59;7758357;32;38083;-81
2022/12/23 09:42:43;;;;;;;48.17;23.55;;;;;;;6.71;67.80;99303.59;7743764;32;39319;-80
2022/12/23 09:47:07;;;;;;;54.63;23.70;;;;;;;7.01;67.68;99312.22;7739484;32;40004;-81
2022/12/23 09:51:24;;;;;;;58.30;23.33;;;;;;;7.22;66.78;99303.12;7739347;32;38657;-81
2022/12/23 09:55:52;;;;;;;57.13;25.60;;;;;;;7.01;67.57;99302.19;7739422;32;38151;-82
2022/12/23 10:00:12;;;;;;;53.00;24.00;;;;;;;6.91;67.93;99296.69;7739221;32;39166;-82
2022/12/23 10:04:40;;;;;;;55.42;22.77;;;;;;;7.07;67.26;99267.78;7737555;32;40090;-82
2022/12/23 10:09:07;;;;;;;54.33;23.55;;;;;;;7.21;66.33;99265.44;7723177;32;37509;-81
2022/12/23 10:13:25;;;;;;;54.55;23.87;;;;;;;6.08;70.76;99261.84;7737661;32;37259;-82
2022/12/23 10:17:42;;;;;;;51.08;23.08;;;;;;;6.72;68.54;99248.31;7724378;32;40019;-82
2022/12/23 10:22:05;;;;;;;46.33;22.75;;;;;;;7.18;66.71;99249.72;7738105;32;39673;-81
2022/12/23 10:26:59;;;;;;;46.77;21.10;;;;;;;7.11;66.56;99258.09;7725829;32;37930;-82
2022/12/23 10:31:19;;;;;;;47.88;23.05;;;;;;;7.12;66.87;99260.53;7731971;32;35718;-82
2022/12/23 10:36:19;;;;;;;46.50;23.00;;;;;;;7.41;65.81;99234.91;7727758;32;37574;-82
2022/12/23 10:41:01;;;;;;;44.50;21.42;;;;;;;7.30;66.10;99266.59;7726527;32;40068;-81
2022/12/23 10:45:30;;;;;;;46.78;21.48;;;;;;;7.42;65.67;99248.22;7738899;32;37945;-82
2022/12/23 10:50:17;;;;;;;52.03;22.37;;;;;;;7.51;65.92;99238.47;7738816;32;37138;-81
2022/12/23 10:54:35;;;;;;;47.22;24.40;;;;;;;7.40;65.81;99238.69;7726786;32;39509;-82
2022/12/23 10:58:55;;;;;;;45.38;22.27;;;;;;;7.30;66.03;99244.91;7738553;32;40809;-82
2022/12/23 11:03:22;;;;;;;44.67;21.55;;;;;;;7.44;65.89;99251.47;7725177;32;38759;-81
2022/12/23 11:07:38;;;;;;;48.42;22.42;;;;;;;7.42;66.11;99236.56;7738669;32;37054;-81
2022/12/23 11:12:06;;;;;;;46.72;21.90;;;;;;;7.51;65.89;99245.81;7738544;32;39859;-81
2022/12/23 11:16:27;;;;;;;44.55;22.10;;;;;;;7.55;65.65;99241.47;7724968;32;39882;-81
2022/12/23 11:20:59;;;;;;;61.60;25.58;;;;;;;7.66;65.51;99239.63;7738397;32;37818;-81
2022/12/23 11:25:28;;;;;;;51.78;22.50;;;;;;;7.29;66.59;99237.84;7738427;32;37974;-82
2022/12/23 11:29:50;;;;;;;47.75;22.60;;;;;;;7.44;66.14;99235.19;7738467;32;39102;-81
2022/12/23 11:34:14;;;;;;;53.08;23.70;;;;;;;7.48;65.47;99236.28;7738128;32;39989;-81
2022/12/23 11:38:31;;;;;;;50.85;23.27;;;;;;;7.33;65.73;99242.47;7724955;32;37998;-82
2022/12/23 11:42:47;;;;;;;49.45;22.58;;;;;;;7.46;65.76;99243.88;7724431;32;37195;-81
2022/12/23 11:47:42;;;;;;;48.87;22.42;;;;;;;7.55;65.35;99232.53;7738246;32;39359;-81
2022/12/23 11:52:13;;;;;;;44.97;22.23;;;;;;;7.51;65.48;99241.19;7726458;32;39698;-82
2022/12/23 11:56:39;;;;;;;51.45;22.60;;;;;;;7.48;65.55;99247.13;7737912;32;38899;-81
2022/12/23 12:01:05;;;;;;;49.50;22.50;;;;;;;7.48;65.82;99249.84;7712044;32;36115;-81
2022/12/23 12:05:47;;;;;;;53.30;23.38;;;;;;;7.47;65.64;99261.78;7738092;32;39341;-82
2022/12/23 12:10:04;;;;;;;55.78;24.58;;;;;;;7.37;66.09;99256.31;7737811;32;39719;-81
2022/12/23 12:14:42;;;;;;;49.78;23.80;;;;;;;7.24;66.66;99246.75;7724009;32;37952;-82
2022/12/23 12:19:03;;;;;;;54.65;24.52;;;;;;;7.65;65.39;99238.00;7737079;32;37184;-82
2022/12/23 12:23:32;;;;;;;49.80;22.20;;;;;;;7.48;65.85;99238.19;7724351;32;40124;-81
2022/12/23 12:27:55;;;;;;;50.28;24.30;;;;;;;7.27;66.53;99250.84;7737634;32;40916;-82
2022/12/23 12:32:21;;;;;;;53.77;25.17;;;;;;;7.52;65.92;99259.09;7723985;32;37938;-82
2022/12/23 12:36:51;;;;;;;66.53;30.55;;;;;;;7.53;65.78;99254.50;7737374;32;37388;-82
2022/12/23 12:41:13;;;;;;;58.42;25.37;;;;;;;7.74;64.90;99249.94;7724964;32;39428;-82
2022/12/23 12:46:02;;;;;;;67.90;30.42;;;;;;;7.78;64.82;99256.50;7722830;32;39985;-82
2022/12/23 12:50:30;;;;;;;51.40;24.85;;;;;;;7.30;66.01;99248.41;7725536;32;38569;-82
2022/12/23 12:55:13;;;;;;;58.10;24.87;;;;;;;7.40;65.84;99260.38;7737064;32;38140;-82
2022/12/23 12:59:35;;;;;;;54.95;24.90;;;;;;;7.67;65.14;99265.66;7737052;32;39483;-82
2022/12/23 13:04:03;;;;;;;56.83;25.58;;;;;;;7.52;65.71;99259.09;7723255;32;39844;-82
2022/12/23 13:08:28;;;;;;;58.63;25.95;;;;;;;7.44;66.04;99281.31;7736650;32;37865;-82
2022/12/23 13:13:19;;;;;;;65.22;26.37;;;;;;;7.40;66.05;99282.91;7736628;32;37020;-82
2022/12/23 13:17:47;;;;;;;61.85;25.33;;;;;;;7.34;65.87;99278.53;7736453;32;39482;-82
2022/12/23 13:22:17;;;;;;;68.40;27.85;;;;;;;7.50;65.30;99271.28;7736367;32;40095;-82
2022/12/23 13:26:55;;;;;;;60.72;25.12;;;;;;;7.40;65.89;99279.38;7736186;32;36776;-82
2022/12/23 13:31:48;;;;;;;59.65;26.05;;;;;;;7.39;66.13;99273.12;7736112;32;37474;-82
2022/12/23 13:36:26;;;;;;;58.90;26.07;;;;;;;7.49;65.91;99286.75;7718919;32;39232;-82
2022/12/23 13:40:58;;;;;;;60.47;25.33;;;;;;;7.27;66.83;99272.53;7724129;32;39968;-81
2022/12/23 13:45:16;;;;;;;56.95;24.70;;;;;;;7.50;66.56;99272.13;7735318;32;37961;-82
2022/12/23 13:50:09;;;;;;;66.57;27.67;;;;;;;7.57;66.29;99271.06;7721970;32;36883;-82
2022/12/23 13:54:48;;;;;;;63.10;26.07;;;;;;;7.57;66.14;99276.47;7724948;32;39266;-82
2022/12/23 13:59:10;;;;;;;59.25;25.30;;;;;;;7.48;66.27;99298.66;7726362;32;40680;-82
2022/12/23 14:03:33;;;;;;;59.43;25.50;;;;;;;7.43;66.59;99300.53;7739309;32;37979;-82
2022/12/23 14:07:49;;;;;;;55.67;24.42;;;;;;;7.60;65.99;99281.38;7739389;32;37022;-82
2022/12/23 14:12:21;;;;;;;58.40;25.52;;;;;;;7.47;66.29;99288.12;7739181;32;40099;-82
2022/12/23 14:16:50;;;;;;;53.72;24.02;;;;;;;7.51;65.99;99290.00;7726369;32;40004;-82
2022/12/23 14:21:21;;;;;;;51.67;23.67;;;;;;;7.52;65.85;99286.22;7725406;32;39115;-82
2022/12/23 14:25:37;;;;;;;49.63;23.52;;;;;;;7.64;65.50;99277.03;7726063;32;37139;-82
2022/12/23 14:30:16;;;;;;;47.83;21.95;;;;;;;7.31;66.30;99290.75;7739091;32;39276;-82
2022/12/23 14:34:33;;;;;;;54.45;23.48;;;;;;;7.41;65.75;99294.56;7739075;32;39666;-82
2022/12/23 14:39:10;;;;;;;53.65;23.73;;;;;;;7.57;65.22;99304.44;7738859;32;38656;-82
2022/12/23 14:43:44;;;;;;;66.28;25.55;;;;;;;7.39;65.82;99302.97;7738747;32;38022;-82
2022/12/23 14:48:21;;;;;;;78.65;26.00;;;;;;;7.25;66.01;99301.81;7726110;32;39804;-82
2022/12/23 14:52:58;;;;;;;71.40;25.65;;;;;;;7.31;65.83;99300.75;7738633;32;40729;-82
2022/12/23 14:57:20;;;;;;;60.08;23.25;;;;;;;7.21;66.20;99306.09;7725673;32;38141;-82
2022/12/23 15:01:40;;;;;;;73.32;26.80;;;;;;;7.32;65.98;99315.94;7725373;32;37127;-82
2022/12/23 15:05:57;;;;;;;137.90;33.35;;;;;;;7.33;65.65;99325.72;7724492;32;39129;-82
2022/12/23 15:10:23;;;;;;;248.80;32.72;;;;;;;7.30;65.97;99312.69;7738565;32;40980;-82
2022/12/23 15:14:53;;;;;;;334.23;36.03;;;;;;;7.33;65.89;99325.72;7724892;32;37745;-82
2022/12/23 15:19:21;;;;;;;456.90;42.47;;;;;;;7.14;66.25;99337.00;7738557;32;38173;-82
2022/12/23 15:23:48;;;;;;;540.45;45.72;;;;;;;7.05;66.63;99335.81;7738436;32;40153;-82
2022/12/23 15:28:05;;;;;;;318.08;36.30;;;;;;;6.63;68.36;99341.97;7738394;32;39646;-82
2022/12/23 15:32:23;;;;;;;202.25;32.50;;;;;;;6.81;68.00;99331.84;7724493;32;38077;-83
2022/12/23 15:36:42;;;;;;;356.30;38.03;;;;;;;6.79;67.75;99336.69;7738176;32;37312;-82
2022/12/23 15:41:04;;;;;;;101.57;30.98;;;;;;;6.85;67.83;99332.97;7724205;32;39851;-82
2022/12/23 15:45:29;;;;;;;86.90;29.40;;;;;;;6.87;67.87;99325.41;7738095;32;39670;-83
2022/12/23 15:49:45;;;;;;;91.12;26.00;;;;;;;6.68;68.52;99314.94;7738143;32;37957;-82
2022/12/23 15:54:03;;;;;;;56.92;23.35;;;;;;;7.07;67.21;99314.72;7738171;32;37921;-82
2022/12/23 15:58:22;;;;;;;62.67;23.87;;;;;;;7.14;66.73;99309.88;7738190;32;38346;-83
2022/12/23 16:02:42;;;;;;;73.43;24.87;;;;;;;6.77;67.47;99324.22;7737869;32;40646;-82
2022/12/23 16:07:33;;;;;;;61.15;23.35;;;;;;;7.04;66.54;99323.34;7737902;32;37981;-82
2022/12/23 16:12:23;;;;;;;54.85;23.62;;;;;;;7.15;66.41;99303.34;7737860;32;37329;-82
2022/12/23 16:16:41;;;;;;;46.10;22.73;;;;;;;6.88;67.03;99319.72;7737216;32;40212;-82
2022/12/23 16:21:03;;;;;;;51.53;22.58;;;;;;;6.97;66.84;99306.50;7737093;32;39910;-82
2022/12/23 16:25:24;;;;;;;62.50;24.20;;;;;;;6.95;66.64;99314.06;7737758;32;37913;-83
2022/12/23 16:29:40;;;;;;;85.65;30.48;;;;;;;6.87;66.97;99317.25;7724257;32;37095;-82
2022/12/23 16:33:59;;;;;;;54.83;25.67;;;;;;;6.76;67.20;99325.31;7737209;32;39090;-82
2022/12/23 16:38:25;;;;;;;50.47;23.12;;;;;;;6.65;67.47;99310.03;7737317;32;39582;-81
2022/12/23 16:42:41;;;;;;;50.15;23.08;;;;;;;6.71;66.97;99306.31;7723529;32;38559;-84
2022/12/23 16:47:02;;;;;;;251.77;33.85;;;;;;;6.69;66.77;99310.31;7723393;32;37187;-83
2022/12/23 16:51:20;;;;;;;52.70;24.67;;;;;;;6.82;66.11;99314.50;7709515;32;39146;-82
2022/12/23 16:55:37;;;;;;;55.17;25.48;;;;;;;6.75;66.54;99307.41;7698054;32;39032;-82
2022/12/23 16:59:59;;;;;;;62.65;25.30;;;;;;;6.56;66.77;99311.59;7711455;32;38092;-82
2022/12/23 17:04:15;;;;;;;53.60;24.05;;;;;;;6.50;67.12;99307.19;7730270;32;37208;-81
2022/12/23 17:08:31;;;;;;;63.53;25.35;;;;;;;6.60;67.15;99312.69;7716549;32;37679;-81
2022/12/23 17:12:48;;;;;;;167.50;26.23;;;;;;;6.73;66.80;99312.28;7730587;32;40870;-85
2022/12/23 17:17:13;;;;;;;104.43;24.30;;;;;;;6.63;66.85;99314.87;7688610;32;37898;-86
2022/12/23 17:21:33;;;;;;;54.47;22.60;;;;;;;6.57;67.35;99310.50;7700271;32;38193;-83
2022/12/23 17:25:51;;;;;;;77.57;21.62;;;;;;;6.78;66.36;99297.97;7709542;32;40102;-84
2022/12/23 17:30:20;;;;;;;79.70;24.75;;;;;;;6.72;66.38;99283.53;7736534;32;39977;-84
2022/12/23 17:34:36;;;;;;;63.08;22.80;;;;;;;6.59;66.83;99286.69;7739654;32;38702;-84
2022/12/23 17:38:52;;;;;;;44.70;19.67;;;;;;;6.42;67.09;99275.19;7732071;32;37252;-86
2022/12/23 17:43:14;;;;;;;41.25;20.17;;;;;;;6.59;66.07;99286.69;7723308;32;38736;-87
2022/12/23 17:47:32;;;;;;;;;;;;;;;6.88;65.08;99281.78;7739723;32;40072;-88
2022/12/23 17:51:51;;;;;;;34.63;16.87;;;;;;;6.13;67.24;99311.44;7739590;32;38267;-86
2022/12/23 17:56:20;;;;;;;39.13;20.27;;;;;;;6.45;66.63;99305.25;7738740;32;38006;-87
2022/12/23 18:00:37;;;;;;;36.90;18.48;;;;;;;6.48;66.67;99293.09;7717861;32;39217;-86
2022/12/23 18:04:53;;;;;;;36.65;20.00;;;;;;;6.49;66.24;99297.44;7711668;32;40722;-86
2022/12/23 18:09:10;;;;;;;52.83;23.27;;;;;;;6.48;66.29;99298.50;7738744;32;38725;-88
2022/12/23 18:13:28;;;;;;;179.90;27.77;;;;;;;6.54;66.08;99298.28;7738781;32;37209;-85
2022/12/23 18:17:44;;;;;;;79.85;26.62;;;;;;;6.59;65.83;99289.41;7723775;32;39884;-84
2022/12/23 18:22:01;;;;;;;305.98;30.98;;;;;;;6.57;65.99;99281.53;7735224;32;38559;-86
2022/12/23 18:26:17;;;;;;;204.27;28.58;;;;;;;6.47;66.37;99286.88;7723362;32;38674;-84
2022/12/23 18:30:34;;;;;;;111.45;25.17;;;;;;;6.63;65.77;99295.94;7737503;32;39182;-85
2022/12/23 18:34:52;;;;;;;204.95;26.55;;;;;;;6.59;66.11;99300.25;7726722;32;40109;-84
2022/12/23 18:39:08;;;;;;;113.75;24.50;;;;;;;6.64;65.75;99297.56;7734551;32;40121;-85
2022/12/23 18:43:26;;;;;;;261.12;26.08;;;;;;;6.39;66.20;99296.25;7725407;32;37823;-85
2022/12/23 18:47:43;;;;;;;308.48;28.85;;;;;;;6.45;65.95;99290.88;7738210;32;37360;-83
2022/12/23 18:52:02;;;;;;;100.57;20.33;;;;;;;6.38;65.63;99291.94;7737894;32;40106;-85
2022/12/23 18:56:22;;;;;;;79.53;19.12;;;;;;;6.34;65.50;99298.09;7737781;32;39876;-84
2022/12/23 19:00:40;;;;;;;114.65;20.15;;;;;;;6.20;65.75;99289.56;7724344;32;37995;-85
2022/12/23 19:04:57;;;;;;;68.75;18.00;;;;;;;6.23;65.67;99277.41;7737800;32;37083;-85
2022/12/23 19:09:20;;;;;;;45.83;17.48;;;;;;;6.25;65.26;99286.09;7737754;32;39588;-85
2022/12/23 19:13:37;;;;;;;44.15;16.73;;;;;;;6.01;65.84;99289.91;7737928;32;40791;-85
2022/12/23 19:17:53;;;;;;;38.15;16.30;;;;;;;6.06;65.62;99294.56;7738196;32;37839;-86
2022/12/23 19:22:09;;;;;;;62.72;19.33;;;;;;;5.98;65.72;99295.81;7737874;32;37380;-87
2022/12/23 19:26:26;;;;;;;45.70;17.65;;;;;;;5.73;66.64;99290.13;7738121;32;40033;-88
2022/12/23 19:30:42;;;;;;;96.45;17.60;;;;;;;6.06;65.80;99291.87;7724090;32;39942;-87
2022/12/23 19:34:58;;;;;;;113.72;19.12;;;;;;;5.91;66.15;99289.75;7737848;32;39005;-85
2022/12/23 19:39:15;;;;;;;87.12;17.75;;;;;;;6.04;65.86;99295.88;7737728;32;36934;-88
2022/12/23 19:43:33;;;;;;;78.32;19.48;;;;;;;6.13;65.47;99297.09;7737923;32;39420;-88
2022/12/23 19:47:50;;;;;;;63.70;19.30;;;;;;;5.87;66.54;99294.06;7716794;32;40026;-89
2022/12/23 19:52:06;;;;;;;42.50;20.85;;;;;;;5.89;66.73;99300.03;7735731;32;37846;-89
2022/12/23 19:56:23;;;;;;;35.80;17.02;;;;;;;6.00;66.62;99301.00;7728937;32;36809;-88
2022/12/23 20:00:40;;;;;;;34.05;17.17;;;;;;;6.12;65.72;99296.28;7711011;32;40036;-89
2022/12/23 20:04:56;;;;;;;29.15;16.58;;;;;;;6.40;64.41;99275.44;7711161;32;40666;-88
2022/12/23 20:09:13;;;;;;;26.42;13.77;;;;;;;6.18;65.05;99270.06;7723115;32;38124;-89
2022/12/23 20:13:29;;;;;;;35.47;16.83;;;;;;;6.15;65.04;99278.69;7723225;32;36683;-89
2022/12/23 20:17:46;;;;;;;34.50;16.17;;;;;;;6.12;65.34;99290.84;7736971;32;40246;-87
2022/12/23 20:22:02;;;;;;;36.30;17.30;;;;;;;5.83;66.63;99298.34;7728054;32;40788;-88
2022/12/23 20:26:18;;;;;;;35.25;16.75;;;;;;;5.79;66.96;99313.44;7697292;32;37834;-87
2022/12/23 20:30:37;;;;;;;32.50;16.10;;;;;;;5.59;68.06;99333.75;7697632;32;37251;-87
2022/12/23 20:34:53;;;;;;;32.80;16.23;;;;;;;5.65;68.04;99330.03;7706395;32;40024;-88
2022/12/23 20:39:10;;;;;;;30.58;15.95;;;;;;;5.90;67.61;99320.63;7714412;32;39628;-86
2022/12/23 20:43:27;;;;;;;29.75;15.35;;;;;;;5.94;67.72;99321.72;7714399;32;38618;-86
2022/12/23 20:47:45;;;;;;;31.45;15.50;;;;;;;6.29;66.42;99306.97;7733888;32;36905;-86
2022/12/23 20:52:01;;;;;;;29.95;15.60;;;;;;;6.18;66.86;99308.78;7736735;32;39267;-86